createdAt,value
2022-09-09T00:03:08.312Z,15.70
2022-09-09T00:07:44.364Z,19.80
2022-09-09T00:11:57.343Z,16.70
2022-09-09T00:16:20.318Z,18.25
2022-09-09T00:21:03.977Z,18.55
2022-09-09T00:25:20.140Z,17.73
2022-09-09T00:29:56.509Z,15.45
2022-09-09T00:34:17.442Z,14.50
2022-09-09T00:38:42.458Z,16.02
2022-09-09T00:42:47.054Z,13.30
2022-09-09T00:47:17.781Z,16.95
2022-09-09T00:51:31.308Z,15.30
2022-09-09T00:56:12.423Z,12.82
2022-09-09T01:00:22.593Z,16.38
2022-09-09T01:04:35.124Z,14.55
2022-09-09T01:09:14.406Z,13.85
2022-09-09T01:13:37.439Z,13.27
2022-09-09T01:18:02.574Z,16.23
2022-09-09T01:22:42.604Z,14.00
2022-09-09T01:26:47.173Z,12.25
2022-09-09T01:31:01.514Z,13.60
2022-09-09T01:35:35.175Z,17.08
2022-09-09T01:39:42.944Z,13.15
2022-09-09T01:43:48.660Z,13.05
2022-09-09T01:47:54.218Z,14.10
2022-09-09T01:52:13.045Z,14.32
2022-09-09T01:56:34.433Z,16.15
2022-09-09T02:00:41.799Z,14.43
2022-09-09T02:04:49.196Z,13.35
2022-09-09T02:08:58.698Z,15.02
2022-09-09T02:13:17.200Z,12.85
2022-09-09T02:17:28.691Z,11.77
2022-09-09T02:21:46.093Z,15.88
2022-09-09T02:25:52.936Z,12.75
2022-09-09T02:30:03.154Z,14.52
2022-09-09T02:34:21.466Z,16.80
2022-09-09T02:38:30.069Z,18.25
2022-09-09T02:42:44.225Z,16.88
2022-09-09T02:47:04.541Z,19.20
2022-09-09T02:51:14.716Z,19.70
2022-09-09T02:55:30.393Z,18.17
2022-09-09T02:59:35.630Z,19.45
2022-09-09T03:03:39.136Z,20.25
2022-09-09T03:07:46.271Z,23.85
2022-09-09T03:11:50.771Z,22.13
2022-09-09T03:15:54.690Z,21.27
2022-09-09T03:19:59.742Z,23.60
2022-09-09T03:24:04.395Z,20.05
2022-09-09T03:28:07.578Z,23.48
2022-09-09T03:32:11.711Z,22.17
2022-09-09T03:36:16.595Z,24.83
2022-09-09T03:40:20.532Z,28.95
2022-09-09T03:44:23.428Z,27.05
2022-09-09T03:48:28.997Z,25.98
2022-09-09T03:52:32.465Z,31.10
2022-09-09T03:56:36.353Z,42.38
2022-09-09T04:00:43.322Z,43.33
2022-09-09T04:04:46.543Z,45.80
2022-09-09T04:08:53.343Z,50.35
2022-09-09T04:12:56.731Z,59.10
2022-09-09T04:17:00.593Z,56.47
2022-09-09T04:21:04.635Z,59.08
2022-09-09T04:25:09.143Z,59.58
2022-09-09T04:29:12.169Z,62.70
2022-09-09T04:33:16.333Z,61.63
2022-09-09T04:37:19.199Z,62.15
2022-09-09T04:41:22.135Z,60.53
2022-09-09T04:45:28.273Z,55.30
2022-09-09T04:49:32.642Z,54.50
2022-09-09T04:53:35.756Z,49.30
2022-09-09T04:57:39.128Z,52.70
2022-09-09T05:01:42.182Z,50.45
2022-09-09T05:05:45.985Z,54.20
2022-09-09T05:09:50.416Z,54.75
2022-09-09T05:13:54.019Z,62.00
2022-09-09T05:18:01.591Z,57.10
2022-09-09T05:22:06.469Z,48.00
2022-09-09T05:26:19.669Z,46.35
2022-09-09T05:30:27.365Z,51.63
2022-09-09T05:34:31.085Z,49.67
2022-09-09T05:38:35.253Z,53.13
2022-09-09T05:42:38.269Z,49.25
2022-09-09T05:46:41.417Z,57.65
2022-09-09T05:50:45.527Z,65.40
2022-09-09T05:54:50.349Z,70.90
2022-09-09T05:58:57.468Z,74.80
2022-09-09T06:03:01.137Z,80.25
2022-09-09T06:07:04.035Z,80.28
2022-09-09T06:11:18.958Z,53.92
2022-09-09T06:15:22.253Z,85.20
2022-09-09T06:19:27.450Z,80.72
2022-09-09T06:23:33.272Z,77.13
2022-09-09T06:27:36.166Z,77.20
2022-09-09T06:31:39.381Z,74.80
2022-09-09T06:35:58.263Z,67.20
2022-09-09T06:40:01.765Z,67.18
2022-09-09T06:44:05.730Z,71.03
2022-09-09T06:48:16.133Z,67.47
2022-09-09T06:52:19.275Z,56.60
2022-09-09T06:56:28.897Z,57.58
2022-09-09T07:00:33.092Z,43.75
2022-09-09T07:04:36.354Z,21.85
2022-09-09T07:08:40.929Z,16.85
2022-09-09T07:12:44.114Z,15.63
2022-09-09T07:16:48.724Z,14.20
2022-09-09T07:20:57.965Z,14.23
2022-09-09T07:25:03.286Z,14.20
2022-09-09T07:29:06.630Z,10.65
2022-09-09T07:33:10.910Z,15.05
2022-09-09T07:37:14.556Z,18.67
2022-09-09T07:41:50.666Z,15.77
2022-09-09T07:46:02.461Z,20.17
2022-09-09T07:50:05.909Z,20.70
2022-09-09T07:54:12.163Z,16.30
2022-09-09T07:58:18.229Z,20.88
2022-09-09T08:02:21.009Z,13.15
2022-09-09T08:06:25.956Z,10.25
2022-09-09T08:10:28.729Z,17.13
2022-09-09T08:14:32.356Z,12.48
2022-09-09T08:18:35.751Z,18.50
2022-09-09T08:22:41.118Z,22.65
2022-09-09T08:26:48.312Z,20.63
2022-09-09T08:30:54.323Z,16.25
2022-09-09T08:35:01.194Z,19.42
2022-09-09T08:43:09.487Z,19.48
2022-09-09T08:47:48.086Z,17.83
2022-09-09T08:51:51.943Z,17.52
2022-09-09T08:56:00.497Z,13.52
2022-09-09T09:00:13.390Z,11.75
2022-09-09T09:04:52.395Z,11.18
2022-09-09T09:09:17.547Z,11.50
2022-09-09T09:13:36.323Z,10.13
2022-09-09T09:17:41.429Z,12.57
2022-09-09T09:21:49.032Z,6.20
2022-09-09T09:25:58.612Z,8.95
2022-09-09T09:30:29.482Z,7.68
2022-09-09T09:34:38.384Z,6.05
2022-09-09T09:43:35.489Z,5.72
2022-09-09T09:47:42.552Z,8.95
2022-09-09T09:51:49.047Z,7.95
2022-09-09T09:56:04.988Z,7.47
2022-09-09T10:00:18.889Z,9.55
2022-09-09T10:04:30.170Z,5.18
2022-09-09T10:08:47.484Z,6.20
2022-09-09T10:13:10.423Z,5.25
2022-09-09T10:17:36.928Z,8.50
2022-09-09T10:21:48.778Z,6.07
2022-09-09T10:26:28.978Z,3.38
2022-09-09T10:30:50.352Z,4.47
2022-09-09T10:34:58.740Z,5.22
2022-09-09T10:39:42.224Z,4.53
2022-09-09T10:44:08.102Z,7.65
2022-09-09T10:48:16.475Z,4.47
2022-09-09T10:52:28.086Z,4.03
2022-09-09T10:56:31.841Z,6.00
2022-09-09T11:00:44.237Z,4.15
2022-09-09T11:04:52.142Z,4.47
2022-09-09T11:08:57.104Z,3.05
2022-09-09T11:13:05.078Z,5.85
2022-09-09T11:17:19.169Z,2.95
2022-09-09T11:21:31.218Z,3.72
2022-09-09T11:25:37.481Z,4.32
2022-09-09T11:29:58.684Z,4.13
2022-09-09T11:34:19.974Z,3.00
2022-09-09T11:38:48.073Z,5.25
2022-09-09T11:43:01.839Z,2.97
2022-09-09T11:47:05.070Z,5.38
2022-09-09T11:51:21.625Z,3.75
2022-09-09T11:55:34.076Z,4.20
2022-09-09T11:59:36.941Z,2.13
2022-09-09T12:03:45.504Z,4.85
2022-09-09T12:07:59.727Z,3.08
2022-09-09T12:12:24.554Z,2.03
2022-09-09T12:16:39.449Z,3.87
2022-09-09T12:21:15.195Z,4.15
2022-09-09T12:25:32.762Z,3.13
2022-09-09T12:29:58.413Z,2.50
2022-09-09T12:34:15.214Z,3.08
2022-09-09T12:38:36.978Z,6.72
2022-09-09T12:42:41.863Z,3.70
2022-09-09T12:46:47.731Z,6.00
2022-09-09T12:54:54.863Z,4.78
2022-09-09T12:58:59.335Z,6.18
2022-09-09T13:03:15.876Z,4.80
2022-09-09T13:07:20.152Z,5.05
2022-09-09T13:11:44.950Z,5.32
2022-09-09T13:15:59.725Z,2.83
2022-09-09T13:20:03.609Z,2.42
2022-09-09T13:24:21.439Z,3.78
2022-09-09T13:28:27.516Z,2.30
2022-09-09T13:32:36.630Z,5.93
2022-09-09T13:36:40.891Z,2.97
2022-09-09T13:40:56.146Z,3.53
2022-09-09T13:45:05.621Z,4.05
2022-09-09T13:49:11.527Z,3.00
2022-09-09T13:53:14.321Z,2.28
2022-09-09T13:57:24.017Z,3.30
2022-09-09T14:01:29.561Z,3.47
2022-09-09T14:05:34.887Z,4.68
2022-09-09T14:09:37.610Z,4.50
2022-09-09T14:13:40.530Z,2.42
2022-09-09T14:17:44.222Z,2.92
2022-09-09T14:21:46.948Z,2.08
2022-09-09T14:25:50.151Z,3.33
2022-09-09T14:29:53.137Z,2.35
2022-09-09T14:33:57.771Z,2.40
2022-09-09T14:38:02.122Z,1.70
2022-09-09T14:42:05.406Z,4.10
2022-09-09T14:46:16.644Z,3.00
2022-09-09T14:50:21.807Z,4.63
2022-09-09T14:54:24.753Z,2.58
2022-09-09T14:58:32.506Z,2.53
2022-09-09T15:02:35.574Z,4.03
2022-09-09T15:06:40.179Z,3.45
2022-09-09T15:10:43.590Z,3.47
2022-09-09T15:14:46.744Z,2.88
2022-09-09T15:18:54.083Z,3.88
2022-09-09T15:22:57.396Z,4.18
2022-09-09T15:27:00.852Z,3.75
2022-09-09T15:31:08.277Z,2.50
2022-09-09T15:35:11.290Z,2.90
2022-09-09T15:39:16.905Z,3.78
2022-09-09T15:43:19.626Z,7.32
2022-09-09T15:47:22.742Z,4.22
2022-09-09T15:51:43.533Z,3.88
2022-09-09T15:55:47.018Z,2.88
2022-09-09T15:59:49.876Z,4.47
2022-09-09T16:03:52.783Z,3.92
2022-09-09T16:07:55.504Z,5.38
2022-09-09T16:12:00.057Z,2.28
2022-09-09T16:16:04.280Z,4.75
2022-09-09T16:20:09.475Z,3.72
2022-09-09T16:24:19.101Z,5.10
2022-09-09T16:28:22.448Z,5.00
2022-09-09T16:32:25.309Z,3.35
2022-09-09T16:36:31.806Z,3.22
2022-09-09T16:40:38.396Z,4.95
2022-09-09T16:44:42.288Z,4.68
2022-09-09T16:48:47.204Z,3.50
2022-09-09T16:52:49.922Z,4.78
2022-09-09T16:56:52.839Z,4.55
2022-09-09T17:00:59.830Z,3.95
2022-09-09T17:05:02.680Z,5.95
2022-09-09T17:09:09.236Z,3.72
2022-09-09T17:13:13.421Z,4.28
2022-09-09T17:17:31.303Z,3.78
2022-09-09T17:21:35.290Z,4.57
2022-09-09T17:25:39.207Z,4.55
2022-09-09T17:29:42.050Z,4.50
2022-09-09T17:33:48.971Z,6.20
2022-09-09T17:37:53.356Z,5.28
2022-09-09T17:41:56.273Z,3.38
2022-09-09T17:46:17.722Z,4.03
2022-09-09T17:50:20.629Z,7.50
2022-09-09T17:54:23.944Z,5.82
2022-09-09T17:58:27.279Z,5.88
2022-09-09T18:02:30.253Z,5.63
2022-09-09T18:06:37.092Z,4.45
2022-09-09T18:10:40.579Z,4.53
2022-09-09T18:14:43.382Z,5.30
2022-09-09T18:18:47.022Z,5.05
2022-09-09T18:22:49.873Z,7.72
2022-09-09T18:26:53.460Z,5.50
2022-09-09T18:30:56.365Z,5.50
2022-09-09T18:34:59.285Z,6.40
2022-09-09T18:39:05.070Z,9.10
2022-09-09T18:43:08.585Z,6.25
2022-09-09T18:47:11.291Z,8.27
2022-09-09T18:51:16.561Z,10.05
2022-09-09T18:55:19.316Z,10.27
2022-09-09T18:59:23.983Z,5.30
2022-09-09T19:03:28.516Z,4.35
2022-09-09T19:07:31.394Z,6.93
2022-09-09T19:11:34.676Z,5.20
2022-09-09T19:15:37.716Z,8.07
2022-09-09T19:19:42.565Z,6.07
2022-09-09T19:23:54.681Z,5.18
2022-09-09T19:27:58.449Z,5.25
2022-09-09T19:32:42.746Z,7.93
2022-09-09T19:36:29.645Z,5.38
2022-09-09T19:40:35.515Z,6.88
2022-09-09T19:44:38.253Z,7.53
2022-09-09T19:48:42.380Z,8.10
2022-09-09T19:52:45.471Z,7.82
2022-09-09T19:56:48.523Z,6.45
2022-09-09T20:00:51.763Z,4.43
2022-09-09T20:04:59.380Z,5.57
2022-09-09T20:09:03.760Z,8.63
2022-09-09T20:13:07.339Z,5.95
2022-09-09T20:17:10.399Z,5.95
2022-09-09T20:21:20.905Z,9.73
2022-09-09T20:25:24.595Z,7.28
2022-09-09T20:29:27.411Z,5.85
2022-09-09T20:33:31.252Z,8.15
2022-09-09T20:37:34.028Z,9.43
2022-09-09T20:41:39.185Z,6.72
2022-09-09T20:45:43.862Z,5.85
2022-09-09T20:49:46.606Z,14.05
2022-09-09T20:53:59.334Z,6.60
2022-09-09T20:58:02.160Z,5.72
2022-09-09T21:02:05.715Z,9.60
2022-09-09T21:06:08.838Z,9.50
2022-09-09T21:10:11.852Z,7.80
2022-09-09T21:14:15.018Z,8.57
2022-09-09T21:18:19.140Z,6.25
2022-09-09T21:22:22.142Z,6.43
2022-09-09T21:26:25.549Z,7.47
2022-09-09T21:30:38.164Z,4.78
2022-09-09T21:34:43.780Z,6.65
2022-09-09T21:38:46.820Z,6.60
2022-09-09T21:42:49.894Z,6.78
2022-09-09T21:46:53.249Z,5.32
2022-09-09T21:50:56.019Z,7.10
2022-09-09T21:54:58.727Z,7.18
2022-09-09T21:59:04.244Z,5.82
2022-09-09T22:03:08.611Z,7.95
2022-09-09T22:07:11.604Z,7.68
2022-09-09T22:11:22.666Z,9.27
2022-09-09T22:15:25.597Z,5.25
2022-09-09T22:19:28.558Z,11.00
2022-09-09T22:23:31.586Z,4.97
2022-09-09T22:27:34.586Z,4.82
2022-09-09T22:31:37.391Z,9.32
2022-09-09T22:35:44.948Z,4.88
2022-09-09T22:39:48.145Z,6.43
